Time;durP1;ratioP1;P1;durP2;ratioP2;P2;SDS_P1;SDS_P2;PMS_P1;PMS_P2;Temp;Humidity;BMP_temperature;BMP_pressure;BME280_temperature;BME280_humidity;BME280_pressure;Samples;Min_cycle;Max_cycle;Signal;HPM_P1;HPM_P2
2022/06/02 00:00:12;;;;;;;0.73;0.70;;;20.20;27.40;;;;;;5016405;28;20448;-78
2022/06/02 00:03:01;;;;;;;3.80;0.83;;;20.10;26.70;;;;;;5016111;28;20487;-79
2022/06/02 00:05:51;;;;;;;0.60;0.60;;;20.00;26.50;;;;;;5015628;28;20456;-78
2022/06/02 00:08:32;;;;;;;2.60;0.70;;;20.00;26.60;;;;;;5016759;28;20999;-77
2022/06/02 00:11:10;;;;;;;0.60;0.60;;;20.00;26.00;;;;;;5022306;28;20490;-78
2022/06/02 00:13:47;;;;;;;0.60;0.60;;;20.00;26.50;;;;;;5023496;28;20490;-78
2022/06/02 00:16:28;;;;;;;0.70;0.70;;;20.00;26.00;;;;;;5013890;28;22152;-77
2022/06/02 00:19:01;;;;;;;0.70;0.70;;;20.00;25.80;;;;;;5013102;28;20448;-78
2022/06/02 00:21:32;;;;;;;2.20;0.90;;;19.90;25.80;;;;;;5016262;28;20483;-78
2022/06/02 00:24:09;;;;;;;0.87;0.70;;;19.90;25.40;;;;;;5020036;28;20540;-78
2022/06/02 00:26:46;;;;;;;0.77;0.70;;;19.90;24.70;;;;;;5014162;28;20452;-78
2022/06/02 00:29:25;;;;;;;2.17;0.80;;;19.80;24.60;;;;;;5017967;28;20459;-78
2022/06/02 00:32:09;;;;;;;0.80;0.80;;;19.80;25.20;;;;;;5016731;28;20469;-78
2022/06/02 00:34:43;;;;;;;2.67;0.70;;;19.80;25.80;;;;;;5015697;28;20847;-79
2022/06/02 00:37:29;;;;;;;0.67;0.60;;;19.80;25.40;;;;;;5020324;28;20467;-78
2022/06/02 00:40:00;;;;;;;0.80;0.80;;;19.80;24.80;;;;;;5015012;28;20509;-78
2022/06/02 00:42:52;;;;;;;1.60;0.80;;;19.70;25.50;;;;;;5020210;28;20523;-79
2022/06/02 00:45:21;;;;;;;0.80;0.80;;;19.70;24.40;;;;;;5012513;28;20484;-78
2022/06/02 00:47:53;;;;;;;0.83;0.60;;;19.70;24.00;;;;;;5013571;28;20441;-78
2022/06/02 00:50:41;;;;;;;2.03;0.80;;;19.70;23.90;;;;;;5012167;28;20473;-78
2022/06/02 00:53:17;;;;;;;0.93;0.63;;;19.60;24.10;;;;;;5014309;28;20448;-78
2022/06/02 00:59:23;;;;;;;0.60;0.60;;;19.60;23.90;;;;;;5013151;28;20477;-78
2022/06/02 01:01:52;;;;;;;2.23;0.80;;;19.60;22.90;;;;;;5018682;28;20480;-78
2022/06/02 01:04:21;;;;;;;0.93;0.83;;;19.60;24.60;;;;;;5013792;28;20476;-77
2022/06/02 01:06:56;;;;;;;1.27;0.80;;;19.60;24.10;;;;;;5021133;28;20458;-78
2022/06/02 01:09:45;;;;;;;2.10;0.80;;;19.60;23.40;;;;;;5015549;28;20954;-78
2022/06/02 01:12:44;;;;;;;1.43;0.60;;;19.60;24.10;;;;;;5012754;28;20906;-78
2022/06/02 01:15:23;;;;;;;0.80;0.70;;;19.50;23.40;;;;;;5019059;28;20481;-79
2022/06/02 01:18:04;;;;;;;0.70;0.70;;;19.50;23.90;;;;;;5011708;28;20507;-78
2022/06/02 01:20:43;;;;;;;1.70;1.30;;;19.50;24.00;;;;;;5017981;28;20468;-78
2022/06/02 01:23:53;;;;;;;1.27;0.77;;;19.40;23.10;;;;;;5017357;28;20480;-78
2022/06/02 01:26:56;;;;;;;0.70;0.70;;;19.40;22.70;;;;;;5013640;28;20468;-78
2022/06/02 01:29:55;;;;;;;1.43;0.77;;;19.40;23.20;;;;;;5012036;28;21091;-78
2022/06/02 01:32:30;;;;;;;0.80;0.60;;;19.40;22.70;;;;;;5018933;28;20865;-78
2022/06/02 01:35:08;;;;;;;1.03;0.70;;;19.40;23.30;;;;;;5017173;28;20452;-78
2022/06/02 01:37:54;;;;;;;1.20;0.80;;;19.40;23.50;;;;;;5017111;28;21026;-79
2022/06/02 01:40:33;;;;;;;0.60;0.60;;;19.30;23.10;;;;;;5017909;28;20481;-79
2022/06/02 01:43:09;;;;;;;0.73;0.67;;;19.30;23.10;;;;;;5019417;28;20531;-78
2022/06/02 01:45:52;;;;;;;0.73;0.73;;;19.30;23.40;;;;;;5017191;28;20452;-78
2022/06/02 01:48:29;;;;;;;1.50;1.00;;;19.40;23.90;;;;;;5017466;28;21056;-78
2022/06/02 01:51:07;;;;;;;0.90;0.90;;;19.30;24.00;;;;;;5019190;28;20518;-79
2022/06/02 01:54:06;;;;;;;0.70;0.70;;;19.30;23.90;;;;;;5017294;28;20468;-78
2022/06/02 01:56:50;;;;;;;0.73;0.73;;;19.30;23.50;;;;;;5014369;28;20459;-78
2022/06/02 01:59:42;;;;;;;0.80;0.80;;;19.30;23.10;;;;;;5014571;28;20462;-78
2022/06/02 02:02:19;;;;;;;0.93;0.77;;;19.30;23.70;;;;;;5017202;28;20472;-77
2022/06/02 02:05:19;;;;;;;1.93;0.80;;;19.30;22.40;;;;;;5011080;28;20457;-78
2022/06/02 02:08:08;;;;;;;0.77;0.77;;;19.30;22.80;;;;;;5002014;28;20538;-78
2022/06/02 02:10:56;;;;;;;1.50;0.80;;;19.20;22.80;;;;;;5017482;28;20481;-78
2022/06/02 02:13:34;;;;;;;1.10;0.70;;;19.20;22.00;;;;;;5017622;28;20453;-78
2022/06/02 02:16:18;;;;;;;1.30;0.80;;;19.10;21.80;;;;;;5012543;28;20457;-77
2022/06/02 02:18:59;;;;;;;0.83;0.70;;;19.10;21.60;;;;;;5016785;28;20968;-77
2022/06/02 02:21:37;;;;;;;0.73;0.73;;;19.10;22.10;;;;;;5021289;28;20484;-78
2022/06/02 02:24:21;;;;;;;0.80;0.80;;;19.10;22.90;;;;;;5021759;28;20480;-78
2022/06/02 02:26:58;;;;;;;0.67;0.67;;;19.10;22.50;;;;;;5021253;28;20463;-78
2022/06/02 02:29:34;;;;;;;2.07;1.00;;;19.00;22.20;;;;;;5015497;28;21246;-78
2022/06/02 02:32:11;;;;;;;0.90;0.90;;;19.00;22.40;;;;;;5021695;28;20472;-77
2022/06/02 02:34:51;;;;;;;1.73;0.80;;;19.00;22.30;;;;;;5021393;28;20959;-78
2022/06/02 02:37:26;;;;;;;2.40;0.80;;;19.00;21.80;;;;;;5022802;28;20456;-79
2022/06/02 02:40:00;;;;;;;0.90;0.80;;;18.90;22.30;;;;;;5019358;28;20464;-78
2022/06/02 02:42:36;;;;;;;0.90;0.80;;;19.00;22.50;;;;;;5021209;28;20588;-79
2022/06/02 02:45:15;;;;;;;1.23;0.90;;;19.00;21.70;;;;;;5019036;28;20452;-77
2022/06/02 02:47:51;;;;;;;1.00;0.90;;;19.00;22.00;;;;;;5020307;28;20453;-78
2022/06/02 02:50:27;;;;;;;0.63;0.63;;;18.90;21.90;;;;;;5022078;28;21327;-78
2022/06/02 02:53:06;;;;;;;1.00;0.90;;;18.90;22.20;;;;;;5017778;28;20440;-78
2022/06/02 02:55:38;;;;;;;0.80;0.80;;;18.90;21.80;;;;;;5021974;28;20463;-77
2022/06/02 02:58:14;;;;;;;1.27;0.70;;;18.90;22.00;;;;;;5020117;28;20456;-78
2022/06/02 03:00:47;;;;;;;1.67;0.70;;;18.80;21.40;;;;;;5022011;28;20510;-78
2022/06/02 03:03:20;;;;;;;0.80;0.80;;;18.80;21.60;;;;;;5016725;28;20487;-78
2022/06/02 03:06:06;;;;;;;1.43;0.70;;;18.70;21.30;;;;;;5022967;28;20505;-78
2022/06/02 03:08:45;;;;;;;1.70;1.00;;;18.70;21.00;;;;;;5021985;28;20464;-78
2022/06/02 03:11:24;;;;;;;1.10;0.80;;;18.60;20.50;;;;;;5017367;28;20483;-78
2022/06/02 03:14:04;;;;;;;4.63;0.90;;;18.60;21.60;;;;;;5017923;28;20463;-78
2022/06/02 03:16:35;;;;;;;1.17;0.73;;;18.70;21.00;;;;;;5016840;28;20509;-78
2022/06/02 03:19:13;;;;;;;1.07;0.97;;;18.60;21.50;;;;;;5017926;28;20476;-78
2022/06/02 03:21:52;;;;;;;1.27;0.80;;;18.60;21.20;;;;;;5022534;28;20480;-78
2022/06/02 03:24:47;;;;;;;1.00;0.80;;;18.60;22.00;;;;;;5020710;28;20483;-78
2022/06/02 03:27:25;;;;;;;0.80;0.80;;;18.60;21.30;;;;;;5017318;28;20452;-78
2022/06/02 03:30:10;;;;;;;0.80;0.73;;;18.60;21.40;;;;;;5014218;28;20532;-78
2022/06/02 03:32:49;;;;;;;1.33;0.90;;;18.60;21.30;;;;;;5019068;28;20452;-78
2022/06/02 03:35:27;;;;;;;0.93;0.87;;;18.50;21.40;;;;;;5029937;28;20519;-78
2022/06/02 03:38:06;;;;;;;1.10;0.70;;;18.50;22.00;;;;;;5023577;28;20477;-78
2022/06/02 03:41:00;;;;;;;0.83;0.80;;;18.50;21.60;;;;;;5014646;28;20473;-78
2022/06/02 03:43:37;;;;;;;2.40;0.80;;;18.40;20.60;;;;;;5020890;28;20477;-78
2022/06/02 03:46:20;;;;;;;0.80;0.80;;;18.40;21.20;;;;;;5016430;28;21038;-77
2022/06/02 03:49:05;;;;;;;1.07;0.80;;;18.50;22.40;;;;;;5018483;28;20453;-78
2022/06/02 03:51:42;;;;;;;0.70;0.70;;;18.50;22.10;;;;;;5020196;28;20552;-77
2022/06/02 03:54:39;;;;;;;0.80;0.80;;;18.50;23.00;;;;;;5016507;28;20441;-78
2022/06/02 03:57:20;;;;;;;0.80;0.80;;;18.50;21.90;;;;;;5009921;28;20478;-78
2022/06/02 04:00:03;;;;;;;1.23;1.13;;;18.40;22.20;;;;;;5015593;28;20486;-78
2022/06/02 04:02:40;;;;;;;0.80;0.80;;;18.40;21.80;;;;;;5022715;28;20457;-76
2022/06/02 04:05:41;;;;;;;1.27;0.90;;;18.40;23.10;;;;;;5030916;28;21026;-76
2022/06/02 04:08:27;;;;;;;1.00;0.80;;;18.40;22.90;;;;;;5029918;28;20463;-75
2022/06/02 04:11:06;;;;;;;1.57;0.97;;;18.50;23.80;;;;;;5032487;28;20476;-76
2022/06/02 04:13:45;;;;;;;1.83;0.87;;;18.50;24.20;;;;;;5035536;28;20454;-76
2022/06/02 04:16:53;;;;;;;0.90;0.90;;;18.50;24.30;;;;;;5017978;28;21020;-78
2022/06/02 04:22:48;;;;;;;1.23;1.13;;;18.40;23.70;;;;;;5019160;28;20519;-78
2022/06/02 04:25:28;;;;;;;1.00;0.90;;;18.40;23.80;;;;;;5013297;28;20480;-78
2022/06/02 04:28:07;;;;;;;1.30;0.77;;;18.40;23.50;;;;;;5013561;28;20888;-78
2022/06/02 04:30:48;;;;;;;1.83;0.90;;;18.40;23.80;;;;;;5017156;28;20539;-78
2022/06/02 04:33:25;;;;;;;0.87;0.80;;;18.40;24.70;;;;;;5012796;28;20449;-77
2022/06/02 04:36:05;;;;;;;0.70;0.70;;;18.30;24.90;;;;;;5016307;28;20539;-78
2022/06/02 04:38:49;;;;;;;0.70;0.70;;;18.30;24.60;;;;;;5007014;28;20519;-77
2022/06/02 04:41:24;;;;;;;1.20;0.87;;;18.30;25.40;;;;;;5012078;28;20480;-77
2022/06/02 04:44:04;;;;;;;1.97;1.87;;;18.40;25.20;;;;;;5022043;28;20480;-77
2022/06/02 04:46:46;;;;;;;0.93;0.90;;;18.40;25.50;;;;;;5017497;28;20457;-78
2022/06/02 04:49:29;;;;;;;1.17;0.83;;;18.50;25.90;;;;;;5018978;28;20474;-78
2022/06/02 04:52:11;;;;;;;1.47;1.10;;;18.40;27.60;;;;;;5014728;28;20861;-77
2022/06/02 04:54:46;;;;;;;2.60;1.40;;;18.40;27.00;;;;;;5015502;28;20461;-78
2022/06/02 04:57:23;;;;;;;1.20;1.10;;;18.40;27.30;;;;;;5012001;28;20467;-78
2022/06/02 05:00:00;;;;;;;1.10;0.90;;;18.40;27.30;;;;;;5008100;28;20467;-77
2022/06/02 05:02:39;;;;;;;0.73;0.73;;;18.50;27.50;;;;;;5014394;28;20461;-78
2022/06/02 05:05:16;;;;;;;1.00;0.87;;;18.40;27.00;;;;;;5018161;28;21263;-78
2022/06/02 05:08:03;;;;;;;0.80;0.70;;;18.40;27.10;;;;;;5014534;28;20464;-78
2022/06/02 05:10:39;;;;;;;2.93;1.30;;;18.40;27.60;;;;;;5018665;28;20488;-78
2022/06/02 05:13:17;;;;;;;4.43;0.87;;;18.40;27.00;;;;;;5018378;28;20459;-78
2022/06/02 05:16:03;;;;;;;1.70;1.10;;;18.40;27.60;;;;;;5018940;28;20460;-78
2022/06/02 05:19:04;;;;;;;1.10;0.90;;;18.40;27.20;;;;;;5017396;28;20513;-78
2022/06/02 05:22:05;;;;;;;1.53;1.43;;;18.50;28.00;;;;;;5019463;28;20992;-78
2022/06/02 05:25:02;;;;;;;1.37;1.27;;;18.50;28.20;;;;;;5015281;28;20481;-77
2022/06/02 05:27:57;;;;;;;0.93;0.73;;;18.50;27.80;;;;;;5011974;28;21106;-78
2022/06/02 05:30:51;;;;;;;1.80;1.00;;;18.50;28.20;;;;;;5015824;28;20484;-77
2022/06/02 05:33:45;;;;;;;1.13;0.93;;;18.50;27.20;;;;;;5012913;28;20456;-78
2022/06/02 05:36:33;;;;;;;2.73;1.40;;;18.60;27.90;;;;;;5016403;28;20445;-78
2022/06/02 05:39:30;;;;;;;0.80;0.80;;;18.50;28.50;;;;;;5011438;28;20488;-78
2022/06/02 05:42:10;;;;;;;1.00;0.90;;;18.60;28.40;;;;;;5013900;28;20478;-77
2022/06/02 05:44:49;;;;;;;1.60;1.50;;;18.60;29.20;;;;;;5018797;28;20543;-78
2022/06/02 05:47:30;;;;;;;1.87;1.20;;;18.70;31.80;;;;;;5014923;28;20467;-77
2022/06/02 05:50:06;;;;;;;1.63;1.00;;;18.70;31.20;;;;;;5019032;28;20867;-77
2022/06/02 05:52:49;;;;;;;0.93;0.90;;;18.70;30.00;;;;;;5020826;28;20478;-77
2022/06/02 05:55:31;;;;;;;1.03;1.00;;;18.80;29.40;;;;;;5027355;28;20548;-78
2022/06/02 05:58:29;;;;;;;1.50;0.90;;;18.80;31.00;;;;;;5023169;28;20507;-77
2022/06/02 06:01:09;;;;;;;3.43;0.90;;;18.80;29.90;;;;;;5024993;28;20472;-78
2022/06/02 06:04:06;;;;;;;0.87;0.87;;;18.90;44.80;;;;;;5023319;28;21090;-78
2022/06/02 06:06:43;;;;;;;1.20;1.10;;;18.80;28.30;;;;;;5024005;28;21080;-78
2022/06/02 06:09:19;;;;;;;6.40;1.40;;;18.80;27.60;;;;;;5027451;28;20491;-78
2022/06/02 06:12:10;;;;;;;1.00;0.90;;;18.90;27.60;;;;;;5024480;28;20535;-78
2022/06/02 06:14:46;;;;;;;1.10;1.00;;;18.90;28.50;;;;;;5024674;28;20453;-78
2022/06/02 06:17:21;;;;;;;2.40;1.30;;;18.90;26.60;;;;;;5024860;28;20955;-78
2022/06/02 06:20:16;;;;;;;3.40;0.93;;;18.90;26.70;;;;;;5025571;28;21028;-77
2022/06/02 06:23:13;;;;;;;2.70;1.00;;;19.00;26.10;;;;;;5022805;28;20542;-78
2022/06/02 06:26:01;;;;;;;1.07;0.90;;;19.00;26.20;;;;;;5025156;28;20485;-77
2022/06/02 06:28:35;;;;;;;1.73;0.93;;;19.00;26.30;;;;;;5021165;28;20959;-78
2022/06/02 06:31:11;;;;;;;1.90;0.83;;;18.90;26.10;;;;;;5027215;28;20498;-78
2022/06/02 06:33:54;;;;;;;1.47;1.03;;;18.90;26.30;;;;;;5023707;28;20467;-78
2022/06/02 06:36:46;;;;;;;1.40;1.00;;;19.00;27.90;;;;;;5023929;28;20958;-77
2022/06/02 06:39:27;;;;;;;1.57;1.00;;;19.10;28.40;;;;;;5021877;28;20869;-78
2022/06/02 06:42:19;;;;;;;1.00;0.90;;;19.30;29.50;;;;;;5020790;28;20527;-78
2022/06/02 06:44:57;;;;;;;0.80;0.80;;;19.30;30.10;;;;;;5022020;28;20447;-78
2022/06/02 06:47:31;;;;;;;2.40;0.90;;;19.40;32.70;;;;;;5021067;28;20456;-77
2022/06/02 06:50:09;;;;;;;2.73;1.00;;;19.40;31.30;;;;;;5024857;28;20461;-77
2022/06/02 06:53:09;;;;;;;1.10;1.00;;;19.50;32.00;;;;;;5021293;28;20468;-78
2022/06/02 06:55:48;;;;;;;0.90;0.90;;;19.70;33.60;;;;;;5015061;28;20465;-78
2022/06/02 06:58:30;;;;;;;0.80;0.80;;;19.60;31.30;;;;;;5019616;28;20975;-78
2022/06/02 07:01:05;;;;;;;1.50;0.90;;;19.80;32.40;;;;;;5022662;28;20516;-78
2022/06/02 07:03:46;;;;;;;1.77;1.20;;;19.90;35.00;;;;;;5016461;28;20515;-78
2022/06/02 07:06:22;;;;;;;1.23;1.10;;;20.00;36.90;;;;;;5014507;28;20499;-78
2022/06/02 07:09:00;;;;;;;1.73;1.03;;;20.00;33.50;;;;;;5025551;28;20471;-78
2022/06/02 07:14:28;;;;;;;1.90;1.10;;;20.20;37.10;;;;;;5017918;28;20460;-78
2022/06/02 07:16:56;;;;;;;1.20;0.80;;;20.30;38.20;;;;;;5021824;28;20574;-79
2022/06/02 07:19:32;;;;;;;0.90;0.83;;;20.30;39.60;;;;;;5020587;28;20484;-78
2022/06/02 07:22:06;;;;;;;0.93;0.90;;;20.30;35.40;;;;;;5020959;28;20821;-78
2022/06/02 07:24:44;;;;;;;1.10;1.00;;;20.30;51.60;;;;;;5020468;28;20461;-77
2022/06/02 07:27:20;;;;;;;1.03;0.87;;;20.40;51.80;;;;;;5017334;28;20491;-77
2022/06/02 07:30:04;;;;;;;0.90;0.80;;;20.50;38.00;;;;;;5022593;28;20447;-77
2022/06/02 07:33:02;;;;;;;0.87;0.87;;;20.50;39.70;;;;;;5020581;28;20464;-76
2022/06/02 07:36:06;;;;;;;1.17;1.00;;;20.60;40.80;;;;;;5014100;28;20874;-77
2022/06/02 07:38:58;;;;;;;0.90;0.90;;;20.60;39.30;;;;;;5018374;28;20475;-77
2022/06/02 07:41:54;;;;;;;0.97;0.87;;;20.70;40.80;;;;;;5015796;28;20477;-76
2022/06/02 07:44:53;;;;;;;1.20;0.90;;;20.70;40.30;;;;;;5018424;28;20464;-77
2022/06/02 07:47:47;;;;;;;1.50;0.80;;;20.70;41.20;;;;;;5012944;28;20500;-77
2022/06/02 07:50:20;;;;;;;2.07;1.10;;;20.70;40.40;;;;;;5020274;28;20461;-77
2022/06/02 07:53:06;;;;;;;1.13;0.90;;;20.80;42.40;;;;;;5018251;28;20459;-77
2022/06/02 07:55:43;;;;;;;1.33;1.23;;;20.80;42.80;;;;;;5019569;28;20454;-77
2022/06/02 07:58:23;;;;;;;1.50;1.00;;;20.80;43.30;;;;;;5015415;28;20968;-77
2022/06/02 08:01:00;;;;;;;0.93;0.90;;;20.80;42.90;;;;;;5017804;28;21003;-77
2022/06/02 08:03:52;;;;;;;0.87;0.80;;;20.90;43.00;;;;;;5022140;28;21031;-76
2022/06/02 08:06:30;;;;;;;0.80;0.80;;;20.90;44.40;;;;;;5028065;28;20508;-77
2022/06/02 08:09:33;;;;;;;2.60;0.97;;;20.90;42.10;;;;;;5016593;28;20486;-77
2022/06/02 08:12:07;;;;;;;1.50;0.90;;;20.90;41.90;;;;;;5010213;28;20509;-77
2022/06/02 08:14:46;;;;;;;1.20;1.10;;;21.00;41.70;;;;;;5011079;28;20591;-75
2022/06/02 08:17:23;;;;;;;1.10;1.00;;;21.10;43.00;;;;;;5014094;28;20465;-78
2022/06/02 08:20:06;;;;;;;0.90;0.90;;;21.10;43.50;;;;;;5015922;28;20945;-78
2022/06/02 08:22:39;;;;;;;0.90;0.90;;;21.20;45.40;;;;;;5013566;28;20445;-78
2022/06/02 08:25:12;;;;;;;3.83;1.07;;;21.20;44.00;;;;;;5017036;28;20488;-77
2022/06/02 08:28:06;;;;;;;0.70;0.70;;;21.10;41.10;;;;;;5013156;28;20582;-78
2022/06/02 08:30:44;;;;;;;1.17;0.80;;;21.00;39.60;;;;;;5016312;28;20500;-78
2022/06/02 08:33:28;;;;;;;1.50;0.90;;;21.10;42.10;;;;;;5019854;28;20456;-78
2022/06/02 08:36:06;;;;;;;1.93;1.00;;;21.10;44.90;;;;;;5016699;28;20452;-78
2022/06/02 08:38:56;;;;;;;0.87;0.87;;;21.20;45.30;;;;;;5016408;28;20472;-78
2022/06/02 08:41:42;;;;;;;1.07;0.97;;;21.20;44.00;;;;;;5014507;28;20510;-78
2022/06/02 08:44:54;;;;;;;0.63;0.63;;;21.30;43.50;;;;;;5017170;28;20491;-76
2022/06/02 08:48:05;;;;;;;1.10;1.00;;;21.30;41.80;;;;;;5023624;28;20465;-78
2022/06/02 08:51:03;;;;;;;0.87;0.80;;;21.30;43.60;;;;;;5024606;28;20560;-78
2022/06/02 08:54:21;;;;;;;2.40;0.80;;;21.30;42.30;;;;;;5007284;28;20462;-75
2022/06/02 08:57:27;;;;;;;1.43;0.90;;;21.20;41.60;;;;;;5015400;28;20460;-78
2022/06/02 09:00:20;;;;;;;1.13;1.10;;;21.30;44.10;;;;;;5004718;28;20468;-78
2022/06/02 09:03:28;;;;;;;2.77;0.90;;;21.40;45.70;;;;;;5023691;28;20824;-78
2022/06/02 09:06:24;;;;;;;0.90;0.90;;;21.40;42.50;;;;;;5022838;28;20502;-78
2022/06/02 09:09:23;;;;;;;0.80;0.80;;;21.40;41.60;;;;;;5025026;28;20457;-78
2022/06/02 09:12:25;;;;;;;0.80;0.80;;;21.40;42.70;;;;;;5023600;28;20480;-77
2022/06/02 09:15:17;;;;;;;0.80;0.80;;;21.40;43.20;;;;;;4992495;28;20469;-78
2022/06/02 09:17:47;;;;;;;1.27;0.80;;;21.50;42.60;;;;;;5017023;28;20530;-78
2022/06/02 09:20:38;;;;;;;1.33;0.80;;;21.30;42.70;;;;;;5015596;28;20992;-78
2022/06/02 09:23:31;;;;;;;0.80;0.80;;;21.40;42.80;;;;;;5013281;28;20488;-78
2022/06/02 09:26:29;;;;;;;1.10;0.80;;;21.40;40.60;;;;;;5009363;28;20525;-78
2022/06/02 09:29:22;;;;;;;0.90;0.70;;;21.40;40.50;;;;;;5015653;28;20453;-78
2022/06/02 09:32:13;;;;;;;1.33;0.90;;;21.50;41.90;;;;;;5013623;28;20503;-78
2022/06/02 09:35:01;;;;;;;1.00;0.90;;;21.60;42.70;;;;;;5016264;28;20472;-78
2022/06/02 09:38:06;;;;;;;1.47;0.80;;;21.60;42.50;;;;;;5016123;28;20540;-78
2022/06/02 09:40:49;;;;;;;0.70;0.70;;;21.50;40.90;;;;;;5014483;28;21023;-76
2022/06/02 09:43:46;;;;;;;1.53;0.80;;;21.50;41.40;;;;;;5014884;28;20468;-78
2022/06/02 09:46:54;;;;;;;0.90;0.90;;;21.60;42.80;;;;;;5025557;28;20521;-78
2022/06/02 09:49:42;;;;;;;2.07;1.00;;;21.40;39.20;;;;;;5012691;28;20876;-78
2022/06/02 09:52:22;;;;;;;1.92;0.90;;;21.50;39.60;;;;;;5023956;28;21282;-77
2022/06/02 09:55:18;;;;;;;0.80;0.80;;;21.60;43.50;;;;;;5018709;28;20209;-76
2022/06/02 09:58:08;;;;;;;0.90;0.90;;;21.70;46.00;;;;;;5011230;28;20972;-77
2022/06/02 10:01:08;;;;;;;1.20;0.90;;;21.80;47.50;;;;;;5014999;28;20856;-77
2022/06/02 10:04:01;;;;;;;0.70;0.70;;;21.90;48.70;;;;;;5007110;28;20882;-77
2022/06/02 10:07:13;;;;;;;1.63;0.90;;;22.00;49.80;;;;;;5015358;28;20488;-77
2022/06/02 10:09:57;;;;;;;0.70;0.70;;;22.20;53.10;;;;;;5014779;28;20456;-78
2022/06/02 10:12:55;;;;;;;0.97;0.90;;;22.20;51.40;;;;;;5016744;28;20468;-77
2022/06/02 10:15:39;;;;;;;0.80;0.80;;;22.30;53.10;;;;;;5012951;28;20461;-77
2022/06/02 10:18:35;;;;;;;1.33;0.70;;;22.30;54.30;;;;;;5015872;28;20428;-77
2022/06/02 10:21:25;;;;;;;0.80;0.80;;;22.40;55.90;;;;;;5017178;28;20472;-77
2022/06/02 10:24:32;;;;;;;1.00;0.87;;;22.40;52.60;;;;;;5018426;28;20464;-77
2022/06/02 10:27:19;;;;;;;0.83;0.83;;;22.40;52.30;;;;;;5018411;28;20775;-77
2022/06/02 10:30:19;;;;;;;0.77;0.77;;;22.40;53.20;;;;;;5018086;28;20468;-77
2022/06/02 10:33:28;;;;;;;3.00;0.97;;;22.50;52.50;;;;;;5014434;28;20464;-78
2022/06/02 10:36:46;;;;;;;0.80;0.80;;;22.40;51.20;;;;;;5014199;28;20460;-77
2022/06/02 10:39:40;;;;;;;1.57;0.80;;;22.50;51.50;;;;;;5012606;28;20452;-77
2022/06/02 10:42:31;;;;;;;1.00;0.80;;;22.50;51.20;;;;;;5018770;28;20474;-78
2022/06/02 10:45:20;;;;;;;1.10;0.90;;;22.60;54.40;;;;;;5019145;28;20448;-78
2022/06/02 10:48:32;;;;;;;1.03;0.93;;;22.70;55.60;;;;;;5018274;28;21022;-77
2022/06/02 10:51:46;;;;;;;0.80;0.80;;;22.70;55.60;;;;;;4991910;28;20579;-77
2022/06/02 10:54:41;;;;;;;0.80;0.80;;;22.70;57.90;;;;;;4994958;28;20563;-77
2022/06/02 10:57:58;;;;;;;1.77;0.80;;;22.80;57.30;;;;;;5009338;28;20456;-77
2022/06/02 11:00:53;;;;;;;1.10;1.00;;;22.80;54.40;;;;;;5019249;28;20599;-77
2022/06/02 11:03:55;;;;;;;0.80;0.80;;;22.80;54.30;;;;;;5019617;28;21029;-77
2022/06/02 11:06:53;;;;;;;0.83;0.83;;;22.70;71.00;;;;;;5015364;28;20459;-77
2022/06/02 11:10:11;;;;;;;1.10;0.87;;;22.80;57.00;;;;;;5015422;28;20511;-77
2022/06/02 11:13:18;;;;;;;0.80;0.80;;;22.80;56.90;;;;;;5017120;28;20465;-77
2022/06/02 11:16:17;;;;;;;0.83;0.83;;;22.80;58.70;;;;;;5019925;28;20518;-77
2022/06/02 11:19:33;;;;;;;3.37;1.10;;;22.90;61.20;;;;;;5019816;28;20453;-77
2022/06/02 11:22:39;;;;;;;0.83;0.83;;;23.00;63.00;;;;;;5023783;28;20476;-77
2022/06/02 11:25:53;;;;;;;1.00;0.90;;;22.90;56.00;;;;;;5022381;28;20470;-77
2022/06/02 11:28:55;;;;;;;0.90;0.90;;;22.90;59.40;;;;;;5016646;28;20483;-77
2022/06/02 11:31:57;;;;;;;1.17;0.97;;;23.00;59.50;;;;;;5016875;28;20558;-78
2022/06/02 11:35:05;;;;;;;0.90;0.90;;;23.00;58.10;;;;;;5017135;28;20517;-77
2022/06/02 11:38:00;;;;;;;1.23;1.00;;;23.10;58.70;;;;;;5019830;28;20551;-77
2022/06/02 11:41:11;;;;;;;0.83;0.70;;;23.20;62.50;;;;;;5019151;28;20575;-77
2022/06/02 11:43:57;;;;;;;1.73;1.33;;;23.30;66.00;;;;;;5016963;28;20561;-77
2022/06/02 11:47:06;;;;;;;1.57;1.00;;;23.40;83.50;;;;;;5017394;28;20456;-77
2022/06/02 11:50:14;;;;;;;0.80;0.80;;;23.40;65.30;;;;;;5015796;28;20452;-78
2022/06/02 11:53:18;;;;;;;0.97;0.97;;;23.50;67.20;;;;;;5019013;28;20839;-77
2022/06/02 11:55:54;;;;;;;0.80;0.80;;;23.60;67.30;;;;;;5019393;28;20806;-77
2022/06/02 11:59:03;;;;;;;1.27;1.10;;;23.60;68.90;;;;;;5014187;28;20459;-76
2022/06/02 12:02:05;;;;;;;1.97;1.10;;;23.60;64.60;;;;;;5013521;28;20476;-76
2022/06/02 12:05:11;;;;;;;0.97;0.97;;;23.60;61.10;;;;;;5013094;28;20457;-77
2022/06/02 12:08:15;;;;;;;1.17;1.07;;;23.50;63.80;;;;;;5012235;28;20520;-77
2022/06/02 12:11:19;;;;;;;0.87;0.87;;;23.60;69.10;;;;;;5017177;28;20500;-77
2022/06/02 12:14:00;;;;;;;0.97;0.97;;;23.60;68.10;;;;;;4989239;28;20553;-77
2022/06/02 12:17:03;;;;;;;1.40;0.80;;;23.70;69.90;;;;;;5020749;28;20474;-77
2022/06/02 12:20:03;;;;;;;1.00;1.00;;;23.70;63.30;;;;;;5008994;28;20449;-77
2022/06/02 12:23:01;;;;;;;0.90;0.90;;;23.70;66.00;;;;;;5012285;28;20453;-77
2022/06/02 12:25:48;;;;;;;2.70;1.20;;;23.70;64.70;;;;;;5018065;28;20524;-77
2022/06/02 12:28:48;;;;;;;0.90;0.90;;;23.50;59.40;;;;;;5017505;28;20480;-77
2022/06/02 12:31:55;;;;;;;1.10;1.00;;;23.50;59.30;;;;;;5016828;28;20571;-78
2022/06/02 12:34:48;;;;;;;0.87;0.87;;;23.60;60.20;;;;;;5017015;28;21327;-77
2022/06/02 12:37:46;;;;;;;1.00;1.00;;;23.60;62.90;;;;;;5022754;28;20459;-77
2022/06/02 12:40:29;;;;;;;1.07;1.00;;;23.70;65.40;;;;;;5021725;28;20477;-77
2022/06/02 12:43:35;;;;;;;0.90;0.90;;;23.70;64.40;;;;;;5028263;28;20470;-76
2022/06/02 12:46:36;;;;;;;1.57;0.90;;;23.70;64.70;;;;;;5023518;28;20451;-77
2022/06/02 12:49:43;;;;;;;1.47;1.00;;;23.80;68.30;;;;;;5016648;28;20580;-77
2022/06/02 12:52:44;;;;;;;1.10;1.00;;;23.80;69.20;;;;;;5016214;28;20868;-77
2022/06/02 12:55:45;;;;;;;1.00;1.00;;;23.80;72.30;;;;;;5015978;28;20471;-76
2022/06/02 12:58:52;;;;;;;1.38;1.00;;;23.90;72.50;;;;;;5001082;28;20491;-78
2022/06/02 13:01:51;;;;;;;0.97;0.97;;;24.00;91.10;;;;;;5022985;28;20468;-79
2022/06/02 13:04:51;;;;;;;1.20;1.10;;;24.00;70.00;;;;;;4992078;28;20968;-78
2022/06/02 13:07:51;;;;;;;1.50;1.40;;;24.00;68.80;;;;;;5027111;28;20460;-79
2022/06/02 13:10:40;;;;;;;1.17;1.10;;;24.00;71.30;;;;;;5028546;28;20455;-79
2022/06/02 13:13:58;;;;;;;1.20;1.10;;;24.00;68.40;;;;;;5024664;28;20452;-79
2022/06/02 13:16:59;;;;;;;0.93;0.90;;;24.00;67.00;;;;;;5023875;28;20679;-78
2022/06/02 13:19:46;;;;;;;1.00;0.93;;;24.00;68.30;;;;;;5006153;28;21246;-79
2022/06/02 13:23:06;;;;;;;1.20;1.10;;;24.00;70.70;;;;;;5021091;28;20468;-79
2022/06/02 13:26:16;;;;;;;0.90;0.90;;;24.00;70.20;;;;;;5005846;28;20448;-77
2022/06/02 13:29:18;;;;;;;1.30;1.20;;;24.10;74.60;;;;;;5003244;28;20492;-79
2022/06/02 13:32:23;;;;;;;0.80;0.80;;;24.10;72.20;;;;;;5024882;28;20631;-79
2022/06/02 13:35:43;;;;;;;1.27;0.93;;;24.10;72.50;;;;;;5009397;28;20896;-79
2022/06/02 13:38:49;;;;;;;0.77;0.77;;;24.10;73.00;;;;;;4980270;28;20457;-79
2022/06/02 13:41:51;;;;;;;0.90;0.90;;;24.10;75.80;;;;;;4858419;28;20493;-79
2022/06/02 13:44:49;;;;;;;1.10;1.00;;;24.20;73.90;;;;;;5024809;28;21223;-79
2022/06/02 13:47:44;;;;;;;0.90;0.90;;;24.20;74.60;;;;;;5019851;28;20460;-76
2022/06/02 13:50:44;;;;;;;0.93;0.90;;;24.20;72.10;;;;;;5011063;28;20603;-79
2022/06/02 14:00:08;;;;;;;0.90;0.90;;;24.10;75.00;;;;;;5032351;28;21138;-78
2022/06/02 14:03:05;;;;;;;1.00;1.00;;;24.20;75.90;;;;;;5023409;28;20448;-79
2022/06/02 14:05:52;;;;;;;0.97;0.97;;;24.20;76.70;;;;;;5016780;28;20536;-79
2022/06/02 14:09:02;;;;;;;1.57;1.43;;;24.20;74.20;;;;;;5020653;28;20464;-78
2022/06/02 14:11:48;;;;;;;1.87;1.00;;;24.20;72.30;;;;;;5017439;28;20483;-79
2022/06/02 14:15:00;;;;;;;0.80;0.80;;;24.20;74.30;;;;;;5028458;28;20833;-79
2022/06/02 14:17:57;;;;;;;0.90;0.90;;;24.20;74.50;;;;;;5024554;28;20836;-79
2022/06/02 14:20:37;;;;;;;2.03;1.00;;;24.20;72.80;;;;;;5030609;28;20471;-79
2022/06/02 14:23:19;;;;;;;2.10;1.10;;;24.10;71.90;;;;;;5028699;28;20490;-80
2022/06/02 14:25:59;;;;;;;1.43;0.90;;;24.10;68.00;;;;;;5019245;28;20448;-79
2022/06/02 14:28:41;;;;;;;1.00;0.90;;;24.10;71.00;;;;;;5017092;28;20544;-78
2022/06/02 14:31:20;;;;;;;1.13;1.10;;;24.10;70.60;;;;;;5011980;28;20560;-79
2022/06/02 14:33:56;;;;;;;1.00;1.00;;;24.10;70.40;;;;;;5025708;28;20494;-78
2022/06/02 14:36:29;;;;;;;1.77;1.67;;;24.10;68.40;;;;;;5029283;28;20448;-79
2022/06/02 14:39:10;;;;;;;0.90;0.90;;;24.10;66.50;;;;;;5024648;28;22269;-77
2022/06/02 14:41:52;;;;;;;1.07;1.07;;;24.10;66.50;;;;;;5019515;28;20479;-76
2022/06/02 14:44:28;;;;;;;1.00;1.00;;;24.00;66.10;;;;;;5020681;28;20461;-78
2022/06/02 14:47:27;;;;;;;0.93;0.93;;;24.00;69.50;;;;;;5025563;28;20448;-78
2022/06/02 14:50:19;;;;;;;0.83;0.83;;;24.00;68.30;;;;;;5029100;28;21018;-78
2022/06/02 14:53:15;;;;;;;0.93;0.90;;;24.00;69.80;;;;;;5028887;28;20459;-78